Time;durP1;ratioP1;P1;durP2;ratioP2;P2;SDS_P1;SDS_P2;PMS_P1;PMS_P2;Temp;Humidity;BMP_temperature;BMP_pressure;BME280_temperature;BME280_humidity;BME280_pressure;Samples;Min_cycle;Max_cycle;Signal;HPM_P1;HPM_P2
2022/12/01 00:00:10;;;;;;;67.77;35.83;;;4.90;99.90;;;;;;4986631;28;20232;-53
2022/12/01 00:02:37;;;;;;;71.03;35.00;;;4.90;99.90;;;;;;4966277;28;20918;-47
2022/12/01 00:05:05;;;;;;;63.73;34.10;;;4.90;99.90;;;;;;4980227;28;20227;-45
2022/12/01 00:07:32;;;;;;;63.63;34.87;;;4.80;99.90;;;;;;4975318;28;20209;-46
2022/12/01 00:12:44;;;;;;;64.50;33.23;;;4.90;99.90;;;;;;4980324;28;20229;-56
2022/12/01 00:15:13;;;;;;;67.93;34.17;;;4.80;99.90;;;;;;4975744;28;20288;-46
2022/12/01 00:17:44;;;;;;;68.00;36.10;;;4.80;99.90;;;;;;4970857;28;20205;-45
2022/12/01 00:20:12;;;;;;;71.30;35.03;;;4.80;99.90;;;;;;4966305;28;20213;-47
2022/12/01 00:22:42;;;;;;;65.50;34.20;;;4.80;99.90;;;;;;4974441;28;21307;-45
2022/12/01 00:25:09;;;;;;;65.87;35.00;;;4.80;99.90;;;;;;4985894;28;20204;-46
2022/12/01 00:27:36;;;;;;;66.13;35.00;;;4.80;99.90;;;;;;4985510;28;22000;-52
2022/12/01 00:30:04;;;;;;;68.23;35.50;;;4.90;99.90;;;;;;4978717;28;20209;-53
2022/12/01 00:32:32;;;;;;;71.10;35.77;;;4.80;99.90;;;;;;4982009;28;20197;-50
2022/12/01 00:34:58;;;;;;;65.93;34.90;;;4.90;99.90;;;;;;4970693;28;20217;-53
2022/12/01 00:37:29;;;;;;;67.10;33.57;;;4.90;99.90;;;;;;4981909;28;20221;-49
2022/12/01 00:39:56;;;;;;;64.67;33.37;;;4.80;99.90;;;;;;4985923;28;20217;-52
2022/12/01 00:42:23;;;;;;;67.73;34.73;;;4.80;99.90;;;;;;4983041;28;20271;-46
2022/12/01 00:44:50;;;;;;;68.07;34.43;;;4.80;99.90;;;;;;4979726;28;20212;-47
2022/12/01 00:47:17;;;;;;;67.07;33.63;;;4.80;99.90;;;;;;4973862;28;20213;-57
2022/12/01 00:49:45;;;;;;;66.80;34.63;;;4.80;99.90;;;;;;4970562;28;20217;-49
2022/12/01 00:52:13;;;;;;;68.87;34.90;;;4.80;99.90;;;;;;4975290;28;20287;-54
2022/12/01 00:54:40;;;;;;;75.07;36.37;;;4.80;99.90;;;;;;4989132;28;20232;-49
2022/12/01 00:57:07;;;;;;;68.43;35.67;;;4.80;99.90;;;;;;4983410;28;20728;-54
2022/12/01 00:59:35;;;;;;;68.13;34.93;;;4.80;99.90;;;;;;4978175;28;20233;-51
2022/12/01 01:02:02;;;;;;;68.60;35.80;;;4.80;99.90;;;;;;4984621;28;20205;-55
2022/12/01 01:04:30;;;;;;;76.27;36.73;;;4.80;99.90;;;;;;4977565;28;20211;-50
2022/12/01 01:06:58;;;;;;;65.40;35.40;;;4.80;99.90;;;;;;4969482;28;20209;-52
2022/12/01 01:09:25;;;;;;;66.53;35.20;;;4.80;99.90;;;;;;4981349;28;20272;-50
2022/12/01 01:11:52;;;;;;;67.67;35.53;;;4.80;99.90;;;;;;4985969;28;20228;-48
2022/12/01 01:14:20;;;;;;;68.70;35.30;;;4.70;99.90;;;;;;4985356;28;20268;-49
2022/12/01 01:16:47;;;;;;;67.03;35.40;;;4.80;99.90;;;;;;4983110;28;20205;-47
2022/12/01 01:19:14;;;;;;;67.23;33.40;;;4.80;99.90;;;;;;4969414;28;20244;-51
2022/12/01 01:21:41;;;;;;;67.47;34.33;;;4.80;99.90;;;;;;4968869;28;20221;-46
2022/12/01 01:24:09;;;;;;;68.30;37.00;;;4.80;99.90;;;;;;4974010;28;20189;-48
2022/12/01 01:26:36;;;;;;;69.27;33.60;;;4.80;99.90;;;;;;4978951;28;20247;-50
2022/12/01 01:29:06;;;;;;;65.03;34.63;;;4.80;99.90;;;;;;4975960;28;20598;-54
2022/12/01 01:31:33;;;;;;;73.77;36.30;;;4.80;99.90;;;;;;4978741;28;20205;-46
2022/12/01 01:34:00;;;;;;;66.90;35.07;;;4.80;99.90;;;;;;4981483;28;20201;-54
2022/12/01 01:36:27;;;;;;;63.13;34.53;;;4.80;99.90;;;;;;4979502;28;20737;-51
2022/12/01 01:38:54;;;;;;;66.43;34.23;;;4.80;99.90;;;;;;4960134;28;20213;-57
2022/12/01 01:41:23;;;;;;;64.73;34.20;;;4.80;99.90;;;;;;4980827;28;20924;-50
2022/12/01 01:43:53;;;;;;;67.67;36.53;;;4.80;99.90;;;;;;4977487;28;20217;-55
2022/12/01 01:46:22;;;;;;;62.87;34.20;;;4.80;99.90;;;;;;4982851;28;20221;-48
2022/12/01 01:48:53;;;;;;;67.97;34.73;;;4.80;99.90;;;;;;4983781;28;20283;-56
2022/12/01 01:51:24;;;;;;;71.60;35.23;;;4.80;99.90;;;;;;4974768;28;20204;-52
2022/12/01 01:53:54;;;;;;;67.17;34.17;;;4.80;99.90;;;;;;4967669;28;20685;-54
2022/12/01 01:56:23;;;;;;;64.63;32.97;;;4.80;99.90;;;;;;4983105;28;20272;-50
2022/12/01 01:58:52;;;;;;;65.47;33.93;;;4.70;99.90;;;;;;4984939;28;20217;-57
2022/12/01 02:01:19;;;;;;;71.97;35.17;;;4.80;99.90;;;;;;4981556;28;20218;-50
2022/12/01 02:03:47;;;;;;;76.53;35.40;;;4.80;99.90;;;;;;4978154;28;20987;-45
2022/12/01 02:06:14;;;;;;;69.67;35.27;;;4.80;99.90;;;;;;4978232;28;20223;-53
2022/12/01 02:08:41;;;;;;;67.60;34.67;;;4.80;99.90;;;;;;4961858;28;20229;-46
2022/12/01 02:11:22;;;;;;;72.80;36.43;;;4.70;99.90;;;;;;4978419;28;20201;-53
2022/12/01 02:14:00;;;;;;;67.50;35.93;;;4.70;99.90;;;;;;4977521;28;20208;-49
2022/12/01 02:16:36;;;;;;;73.77;36.07;;;4.70;99.90;;;;;;4991159;28;20208;-53
2022/12/01 02:19:23;;;;;;;71.87;36.43;;;4.70;99.90;;;;;;4981218;28;20604;-52
2022/12/01 02:22:03;;;;;;;69.60;35.90;;;4.70;99.90;;;;;;4978428;28;20220;-51
2022/12/01 02:24:55;;;;;;;67.67;34.97;;;4.70;99.90;;;;;;4957245;28;20725;-46
2022/12/01 02:27:37;;;;;;;72.63;34.43;;;4.70;99.90;;;;;;4971654;28;20205;-52
2022/12/01 02:30:09;;;;;;;69.37;36.17;;;4.70;99.90;;;;;;4972554;28;20209;-55
2022/12/01 02:32:46;;;;;;;67.77;34.97;;;4.60;99.90;;;;;;4977746;28;20220;-46
2022/12/01 02:35:19;;;;;;;74.23;36.27;;;4.70;99.90;;;;;;4974685;28;20201;-49
2022/12/01 02:37:55;;;;;;;73.67;37.00;;;4.70;99.90;;;;;;4977751;28;20251;-50
2022/12/01 02:40:27;;;;;;;73.00;34.63;;;4.70;99.90;;;;;;4964220;28;20231;-55
2022/12/01 02:43:02;;;;;;;74.67;36.13;;;4.60;99.90;;;;;;4980420;28;20197;-51
2022/12/01 02:45:40;;;;;;;70.20;35.43;;;4.70;99.90;;;;;;4982007;28;20228;-57
2022/12/01 02:48:14;;;;;;;73.23;35.03;;;4.70;99.90;;;;;;4983414;28;20224;-48
2022/12/01 02:51:09;;;;;;;70.93;34.50;;;4.70;99.90;;;;;;4978572;28;20215;-46
2022/12/01 02:53:36;;;;;;;72.53;35.57;;;4.60;99.90;;;;;;4978721;28;20207;-56
2022/12/01 02:56:07;;;;;;;73.43;35.73;;;4.60;99.90;;;;;;4971913;28;20205;-48
2022/12/01 02:58:35;;;;;;;74.57;36.23;;;4.60;99.90;;;;;;4979572;28;20568;-56
2022/12/01 03:01:16;;;;;;;69.67;35.10;;;4.60;99.90;;;;;;4986649;28;20221;-50
2022/12/01 03:04:08;;;;;;;70.90;35.67;;;4.60;99.90;;;;;;4969610;28;20221;-58
2022/12/01 03:06:44;;;;;;;65.43;34.27;;;4.60;99.90;;;;;;4981627;28;20205;-49
2022/12/01 03:09:23;;;;;;;67.17;37.13;;;4.60;99.90;;;;;;4979506;28;20712;-53
2022/12/01 03:11:58;;;;;;;67.23;34.93;;;4.60;99.90;;;;;;4968264;28;20340;-56
2022/12/01 03:14:36;;;;;;;74.57;35.60;;;4.60;99.90;;;;;;4977197;28;20330;-55
2022/12/01 03:17:07;;;;;;;69.33;35.27;;;4.60;99.90;;;;;;4986658;28;20304;-51
2022/12/01 03:19:40;;;;;;;74.03;36.10;;;4.60;99.90;;;;;;4985429;28;20220;-58
2022/12/01 03:22:11;;;;;;;78.47;36.63;;;4.60;99.90;;;;;;4984590;28;20248;-47
2022/12/01 03:24:40;;;;;;;73.47;36.30;;;4.60;99.90;;;;;;4978578;28;21806;-58
2022/12/01 03:27:09;;;;;;;74.10;35.97;;;4.60;99.90;;;;;;4962073;28;20213;-53
2022/12/01 03:29:42;;;;;;;71.90;36.00;;;4.50;99.90;;;;;;4987656;28;20270;-59
2022/12/01 03:32:15;;;;;;;65.33;34.57;;;4.50;99.90;;;;;;4974417;28;20740;-52
2022/12/01 03:34:48;;;;;;;74.57;34.03;;;4.50;99.90;;;;;;4990269;28;20215;-54
2022/12/01 03:37:22;;;;;;;71.80;36.40;;;4.50;99.90;;;;;;4985375;28;20201;-49
2022/12/01 03:39:53;;;;;;;71.13;35.23;;;4.50;99.90;;;;;;4977631;28;20229;-56
2022/12/01 03:42:25;;;;;;;73.83;35.47;;;4.50;99.90;;;;;;4959426;28;20232;-54
2022/12/01 03:44:55;;;;;;;74.37;37.23;;;4.50;99.90;;;;;;4989922;28;20219;-57
2022/12/01 03:47:24;;;;;;;80.23;36.07;;;4.40;99.90;;;;;;4980621;28;20904;-54
2022/12/01 03:49:53;;;;;;;69.80;35.50;;;4.50;99.90;;;;;;4985777;28;20221;-55
2022/12/01 03:52:31;;;;;;;78.27;36.53;;;4.50;99.90;;;;;;4974094;28;20280;-58
2022/12/01 03:55:10;;;;;;;81.30;37.27;;;4.50;99.90;;;;;;4986724;28;20212;-57
2022/12/01 03:57:42;;;;;;;75.77;34.93;;;4.50;99.90;;;;;;4966567;28;20205;-58
2022/12/01 04:00:11;;;;;;;76.70;36.10;;;4.40;99.90;;;;;;4983793;28;20582;-55
2022/12/01 04:02:40;;;;;;;79.60;35.00;;;4.50;99.90;;;;;;4972947;28;20237;-56
2022/12/01 04:05:09;;;;;;;75.27;33.83;;;4.50;99.90;;;;;;4980177;28;20380;-52
2022/12/01 04:07:36;;;;;;;76.63;36.47;;;4.50;99.90;;;;;;4978300;28;20197;-57
2022/12/01 04:10:03;;;;;;;81.33;36.60;;;4.50;99.90;;;;;;4984599;28;20701;-50
2022/12/01 04:12:29;;;;;;;75.33;37.13;;;4.50;99.90;;;;;;4960863;28;20205;-57
2022/12/01 04:14:57;;;;;;;70.00;34.70;;;4.50;99.90;;;;;;4983853;28;20193;-57
2022/12/01 04:17:24;;;;;;;74.40;35.07;;;4.50;99.90;;;;;;4976561;28;20200;-58
2022/12/01 04:19:51;;;;;;;75.60;35.47;;;4.50;99.90;;;;;;4975984;28;20225;-58
2022/12/01 04:22:20;;;;;;;73.77;35.53;;;4.40;99.90;;;;;;4975777;28;20224;-52
2022/12/01 04:24:46;;;;;;;73.50;35.10;;;4.40;99.90;;;;;;4975454;28;20671;-57
2022/12/01 04:27:13;;;;;;;61.77;31.93;;;4.40;99.90;;;;;;4970610;28;20216;-54
2022/12/01 04:29:40;;;;;;;72.07;35.70;;;4.40;99.90;;;;;;4961020;28;20236;-54
2022/12/01 04:32:07;;;;;;;72.03;35.70;;;4.50;99.90;;;;;;4976020;28;20202;-58
2022/12/01 04:34:34;;;;;;;75.00;35.57;;;4.40;99.90;;;;;;4979896;28;20225;-56
2022/12/01 04:37:02;;;;;;;75.80;34.73;;;4.40;99.90;;;;;;4977377;28;20189;-56
2022/12/01 04:39:30;;;;;;;71.70;35.70;;;4.40;99.90;;;;;;4964677;28;20221;-55
2022/12/01 04:41:57;;;;;;;73.97;34.50;;;4.40;99.90;;;;;;4975827;28;20229;-56
2022/12/01 04:44:23;;;;;;;77.37;35.83;;;4.40;99.90;;;;;;4960284;28;20860;-57
2022/12/01 04:46:51;;;;;;;74.20;35.23;;;4.40;99.90;;;;;;4979174;28;20752;-58
2022/12/01 04:49:18;;;;;;;80.33;37.20;;;4.40;99.90;;;;;;4982382;28;20248;-49
2022/12/01 04:51:45;;;;;;;70.37;33.33;;;4.40;99.90;;;;;;4982004;28;20813;-57
2022/12/01 04:54:12;;;;;;;73.80;35.40;;;4.40;99.90;;;;;;4982324;28;20197;-52
2022/12/01 04:56:41;;;;;;;71.93;36.70;;;4.40;99.90;;;;;;4979634;28;20209;-54
2022/12/01 04:59:08;;;;;;;77.43;35.33;;;4.40;99.90;;;;;;4961487;28;20233;-53
2022/12/01 05:01:35;;;;;;;71.47;35.03;;;4.40;99.90;;;;;;4967217;28;20457;-55
2022/12/01 05:04:02;;;;;;;78.13;34.47;;;4.40;99.90;;;;;;4981085;28;20204;-56
2022/12/01 05:06:29;;;;;;;74.03;36.50;;;4.40;99.90;;;;;;4983542;28;20209;-54
2022/12/01 05:08:59;;;;;;;72.80;34.57;;;4.40;99.90;;;;;;4978826;28;20233;-55
2022/12/01 05:11:27;;;;;;;78.07;36.57;;;4.40;99.90;;;;;;4984375;28;20634;-51
2022/12/01 05:13:55;;;;;;;79.13;36.53;;;4.40;99.90;;;;;;4959716;28;20241;-54
2022/12/01 05:16:24;;;;;;;79.30;35.27;;;4.40;99.90;;;;;;4984498;28;20244;-55
2022/12/01 05:20:55;;;;;;;74.80;36.23;;;4.40;99.90;;;;;;4972821;28;20223;-54
2022/12/01 05:21:41;;;;;;;76.40;36.63;;;4.30;99.90;;;;;;4976215;28;20239;-52
2022/12/01 05:24:08;;;;;;;80.00;35.40;;;4.40;99.90;;;;;;4982265;28;20225;-54
2022/12/01 05:26:36;;;;;;;68.57;34.43;;;4.40;99.90;;;;;;4986685;28;20201;-53
2022/12/01 05:29:04;;;;;;;78.13;35.80;;;4.40;99.90;;;;;;4976551;28;20225;-58
2022/12/01 05:31:31;;;;;;;79.53;36.50;;;4.40;99.90;;;;;;4966938;28;20210;-50
2022/12/01 05:33:58;;;;;;;80.70;35.80;;;4.30;99.90;;;;;;4978766;28;20206;-54
2022/12/01 05:36:25;;;;;;;80.60;36.27;;;4.30;99.90;;;;;;4988138;28;20205;-55
2022/12/01 05:38:53;;;;;;;72.33;32.97;;;4.40;99.90;;;;;;4973973;28;20222;-56
2022/12/01 05:41:20;;;;;;;77.77;36.87;;;4.40;99.90;;;;;;4981433;28;20220;-58
2022/12/01 05:43:47;;;;;;;77.10;37.50;;;4.30;99.90;;;;;;4975602;28;20202;-58
2022/12/01 05:46:15;;;;;;;73.27;35.13;;;4.40;99.90;;;;;;4963292;28;20220;-57
2022/12/01 05:48:42;;;;;;;79.83;36.00;;;4.40;99.90;;;;;;4976266;28;20225;-51
2022/12/01 05:51:09;;;;;;;77.63;36.80;;;4.30;99.90;;;;;;4976554;28;20201;-53
2022/12/01 05:53:36;;;;;;;81.80;35.77;;;4.40;99.90;;;;;;4972009;28;20213;-57
2022/12/01 05:56:03;;;;;;;81.30;37.07;;;4.40;99.90;;;;;;4978933;28;20214;-52
2022/12/01 05:58:30;;;;;;;81.07;34.60;;;4.30;99.90;;;;;;4974750;28;20233;-58
2022/12/01 06:00:57;;;;;;;78.63;36.63;;;4.30;99.90;;;;;;4978436;28;20220;-56
2022/12/01 06:03:25;;;;;;;76.57;36.33;;;4.30;99.90;;;;;;4955595;28;20213;-58
2022/12/01 06:05:51;;;;;;;74.90;36.03;;;4.30;99.90;;;;;;4970625;28;20213;-56
2022/12/01 06:08:19;;;;;;;73.80;34.53;;;4.30;99.90;;;;;;4974544;28;20341;-59
2022/12/01 06:10:46;;;;;;;78.67;35.00;;;4.30;99.90;;;;;;4979230;28;20208;-58
2022/12/01 06:13:13;;;;;;;72.73;33.57;;;4.30;99.90;;;;;;4979511;28;20209;-53
2022/12/01 06:15:39;;;;;;;79.87;37.23;;;4.30;99.90;;;;;;4976223;28;20578;-56
2022/12/01 06:18:06;;;;;;;82.30;37.03;;;4.30;99.90;;;;;;4960405;28;20229;-54
2022/12/01 06:20:34;;;;;;;81.47;36.67;;;4.30;99.90;;;;;;4979384;28;20625;-58
2022/12/01 06:23:01;;;;;;;90.03;37.23;;;4.30;99.90;;;;;;4972987;28;20221;-52
2022/12/01 06:25:27;;;;;;;78.73;36.50;;;4.30;99.90;;;;;;4979403;28;20204;-57
2022/12/01 06:27:56;;;;;;;76.40;37.03;;;4.30;99.90;;;;;;4996274;28;20210;-52
2022/12/01 06:30:22;;;;;;;82.90;34.70;;;4.30;99.90;;;;;;4973365;28;20315;-59
2022/12/01 06:32:49;;;;;;;78.73;36.37;;;4.30;99.90;;;;;;4982546;28;20642;-57
2022/12/01 06:35:16;;;;;;;78.40;36.17;;;4.30;99.90;;;;;;4954605;28;20260;-56
2022/12/01 06:37:45;;;;;;;80.43;35.57;;;4.30;99.90;;;;;;4983974;28;20242;-58
2022/12/01 06:40:12;;;;;;;75.67;36.63;;;4.30;99.90;;;;;;4969227;28;20231;-52
2022/12/01 06:42:39;;;;;;;75.23;36.33;;;4.20;99.90;;;;;;4983889;28;20251;-58
2022/12/01 06:45:07;;;;;;;82.97;35.90;;;4.30;99.90;;;;;;4970243;28;20291;-53
2022/12/01 06:47:33;;;;;;;74.83;34.90;;;4.30;99.90;;;;;;4978699;28;20228;-50
2022/12/01 06:50:01;;;;;;;82.67;37.07;;;4.30;99.90;;;;;;4964017;28;20209;-53
2022/12/01 06:52:28;;;;;;;77.67;35.90;;;4.30;99.90;;;;;;4971589;28;20989;-55
2022/12/01 06:54:56;;;;;;;83.23;36.60;;;4.30;99.90;;;;;;4979622;28;20213;-55
2022/12/01 06:57:23;;;;;;;82.40;37.23;;;4.30;99.90;;;;;;4973592;28;20280;-52
2022/12/01 06:59:49;;;;;;;82.30;37.43;;;4.30;99.90;;;;;;4987741;28;20267;-53
2022/12/01 07:02:16;;;;;;;78.10;34.80;;;4.30;99.90;;;;;;4965867;28;20221;-52
2022/12/01 07:04:43;;;;;;;75.70;36.00;;;4.30;99.90;;;;;;4968878;28;20211;-53
2022/12/01 07:07:12;;;;;;;82.97;37.10;;;4.30;99.90;;;;;;4968031;28;20288;-51
2022/12/01 07:09:39;;;;;;;82.77;37.10;;;4.20;99.90;;;;;;4980163;28;20640;-57
2022/12/01 07:12:08;;;;;;;83.80;36.47;;;4.30;99.90;;;;;;4976946;28;20194;-54
2022/12/01 07:14:36;;;;;;;77.73;36.43;;;4.20;99.90;;;;;;4967849;28;20354;-50
2022/12/01 07:17:03;;;;;;;82.10;35.33;;;4.20;99.90;;;;;;4968858;28;20265;-53
2022/12/01 07:19:30;;;;;;;80.73;35.90;;;4.20;99.90;;;;;;4950348;28;22371;-53
2022/12/01 07:21:57;;;;;;;89.43;38.17;;;4.20;99.90;;;;;;4974567;28;20240;-54
2022/12/01 07:24:24;;;;;;;79.73;38.03;;;4.20;99.90;;;;;;4969205;28;20885;-51
2022/12/01 07:26:52;;;;;;;84.93;37.53;;;4.10;99.90;;;;;;4975954;28;20209;-51
2022/12/01 07:29:20;;;;;;;86.33;39.30;;;4.10;99.90;;;;;;4979858;28;21025;-48
2022/12/01 07:31:46;;;;;;;77.97;35.30;;;4.10;99.90;;;;;;4979458;28;20296;-48
2022/12/01 07:34:14;;;;;;;84.13;36.77;;;4.10;99.90;;;;;;4975797;28;20209;-52
2022/12/01 07:36:41;;;;;;;79.17;36.57;;;4.10;99.90;;;;;;4969581;28;21075;-52
2022/12/01 07:39:08;;;;;;;82.03;37.77;;;4.10;99.90;;;;;;4965685;28;20863;-57
2022/12/01 07:41:35;;;;;;;86.33;36.97;;;4.10;99.90;;;;;;4973620;28;20205;-55
2022/12/01 07:44:02;;;;;;;77.87;36.53;;;4.10;99.90;;;;;;4969390;28;20240;-58
2022/12/01 07:46:31;;;;;;;80.47;34.93;;;4.10;99.90;;;;;;4976717;28;20216;-55
2022/12/01 07:48:58;;;;;;;80.07;35.77;;;4.10;99.90;;;;;;4990971;28;20222;-53
2022/12/01 07:51:26;;;;;;;76.33;33.30;;;4.10;99.90;;;;;;4968295;28;20292;-55
2022/12/01 07:53:55;;;;;;;70.63;33.77;;;4.10;99.90;;;;;;4973417;28;20677;-57
2022/12/01 07:56:23;;;;;;;78.63;33.83;;;4.10;99.90;;;;;;4971039;28;20206;-54
2022/12/01 07:58:50;;;;;;;77.33;35.40;;;4.10;99.90;;;;;;4974044;28;20299;-58
2022/12/01 08:01:19;;;;;;;74.23;34.10;;;4.10;99.90;;;;;;4970813;28;20201;-52
2022/12/01 08:03:48;;;;;;;75.33;33.53;;;4.10;99.90;;;;;;4968744;28;20229;-55
2022/12/01 08:06:16;;;;;;;70.07;33.10;;;4.10;99.90;;;;;;4967065;28;20225;-54
2022/12/01 08:08:43;;;;;;;73.43;33.70;;;4.10;99.90;;;;;;4973268;28;20660;-52
2022/12/01 08:11:11;;;;;;;68.03;33.00;;;4.00;99.90;;;;;;4967662;28;20201;-54
2022/12/01 08:13:38;;;;;;;78.33;34.37;;;4.10;99.90;;;;;;4980229;28;20201;-54
2022/12/01 08:16:07;;;;;;;67.40;33.47;;;4.10;99.90;;;;;;4969900;28;20259;-57
2022/12/01 08:18:34;;;;;;;66.37;33.03;;;4.10;99.90;;;;;;4974074;28;20229;-54
2022/12/01 08:21:03;;;;;;;75.27;33.33;;;4.10;99.90;;;;;;4981891;28;20284;-54
2022/12/01 08:23:30;;;;;;;70.33;32.43;;;4.10;99.90;;;;;;4958336;28;20785;-53
2022/12/01 08:26:00;;;;;;;72.93;33.03;;;4.10;99.90;;;;;;4977735;28;20571;-52
2022/12/01 08:28:27;;;;;;;71.33;32.53;;;4.10;99.90;;;;;;4973287;28;20225;-53
2022/12/01 08:30:54;;;;;;;74.90;35.57;;;4.10;99.90;;;;;;4975190;28;20204;-48
2022/12/01 08:33:20;;;;;;;67.57;33.97;;;4.10;99.90;;;;;;4978802;28;20189;-53
2022/12/01 08:35:47;;;;;;;74.53;34.07;;;4.10;99.90;;;;;;4975506;28;20201;-53
2022/12/01 08:38:16;;;;;;;75.83;33.93;;;4.20;99.90;;;;;;4953206;28;21304;-55
2022/12/01 08:40:43;;;;;;;67.20;31.40;;;4.10;99.90;;;;;;4974100;28;20622;-53
2022/12/01 08:43:09;;;;;;;74.83;33.57;;;4.10;99.90;;;;;;4962312;28;20244;-53
2022/12/01 08:45:36;;;;;;;77.27;34.57;;;4.10;99.90;;;;;;4967260;28;20255;-52
2022/12/01 08:48:03;;;;;;;74.07;34.67;;;4.20;99.90;;;;;;4970500;28;20247;-55
2022/12/01 08:50:29;;;;;;;65.93;32.33;;;4.20;99.90;;;;;;4971990;28;20898;-53
2022/12/01 08:52:57;;;;;;;71.27;33.00;;;4.20;99.90;;;;;;4975554;28;20194;-55
2022/12/01 08:55:25;;;;;;;68.50;32.17;;;4.20;99.90;;;;;;4963760;28;20952;-56
2022/12/01 08:57:52;;;;;;;73.13;33.87;;;4.20;99.90;;;;;;4975500;28;20224;-56
2022/12/01 09:00:19;;;;;;;73.73;33.83;;;4.20;99.90;;;;;;4967795;28;21327;-56
2022/12/01 09:02:46;;;;;;;66.20;32.30;;;4.30;99.90;;;;;;4986153;28;20712;-55
2022/12/01 09:05:13;;;;;;;69.80;33.03;;;4.30;99.90;;;;;;4962499;28;20267;-56
2022/12/01 09:07:41;;;;;;;70.43;32.23;;;4.30;99.90;;;;;;4978423;28;20209;-54
2022/12/01 09:10:09;;;;;;;72.77;34.03;;;4.30;99.90;;;;;;4955620;28;20209;-54
2022/12/01 09:12:37;;;;;;;75.13;33.67;;;4.40;99.90;;;;;;4959955;28;20202;-54
2022/12/01 09:15:04;;;;;;;78.67;36.20;;;4.40;99.90;;;;;;4981861;28;20548;-53
2022/12/01 09:17:32;;;;;;;75.47;33.37;;;4.40;99.90;;;;;;4970676;28;20608;-56
2022/12/01 09:19:59;;;;;;;66.63;32.07;;;4.40;99.90;;;;;;4969217;28;20201;-54
2022/12/01 09:22:26;;;;;;;65.60;33.07;;;4.40;99.90;;;;;;4965898;28;20232;-51
2022/12/01 09:24:53;;;;;;;68.37;31.73;;;4.40;99.90;;;;;;4984248;28;20197;-52
2022/12/01 09:27:19;;;;;;;68.13;32.13;;;4.40;99.90;;;;;;4963479;28;20841;-54
2022/12/01 09:29:48;;;;;;;68.67;31.33;;;4.40;99.90;;;;;;4977969;28;20307;-52
2022/12/01 09:32:14;;;;;;;63.30;29.27;;;4.40;99.90;;;;;;4973196;28;20208;-56
2022/12/01 09:34:41;;;;;;;63.40;29.03;;;4.40;99.90;;;;;;4978647;28;20213;-52
2022/12/01 09:37:08;;;;;;;55.83;28.70;;;4.30;99.90;;;;;;4960098;28;20220;-56
2022/12/01 09:39:35;;;;;;;56.77;28.70;;;4.30;99.90;;;;;;4984402;28;20284;-55
2022/12/01 09:42:05;;;;;;;61.80;27.73;;;4.30;99.90;;;;;;4968740;28;20201;-56
2022/12/01 09:44:39;;;;;;;59.40;28.70;;;4.30;99.90;;;;;;4977295;28;20227;-56
2022/12/01 09:47:17;;;;;;;57.00;27.37;;;4.40;99.90;;;;;;4975396;28;20629;-56
2022/12/01 09:49:54;;;;;;;64.47;26.87;;;4.30;99.90;;;;;;4978609;28;20755;-54
2022/12/01 09:52:23;;;;;;;59.33;26.73;;;4.40;99.90;;;;;;4962284;28;20205;-50
2022/12/01 09:54:51;;;;;;;58.17;26.97;;;4.40;99.90;;;;;;4980924;28;20209;-55
2022/12/01 09:57:30;;;;;;;56.77;27.03;;;4.30;99.90;;;;;;4964529;28;20296;-52
2022/12/01 09:59:59;;;;;;;54.43;25.70;;;4.40;99.90;;;;;;4977660;28;20204;-57
2022/12/01 10:02:33;;;;;;;56.07;26.03;;;4.40;99.90;;;;;;4960996;28;20205;-53
2022/12/01 10:05:03;;;;;;;57.73;25.57;;;4.40;99.90;;;;;;4979469;28;20263;-51
2022/12/01 10:07:34;;;;;;;51.67;24.67;;;4.40;99.90;;;;;;4971259;28;20205;-54
2022/12/01 10:10:04;;;;;;;49.20;23.97;;;4.40;99.90;;;;;;4968273;28;20209;-55
2022/12/01 10:12:34;;;;;;;52.57;24.47;;;4.40;99.90;;;;;;4964488;28;20221;-52
2022/12/01 10:15:24;;;;;;;51.73;24.90;;;4.40;99.90;;;;;;4978421;28;20692;-51
2022/12/01 10:18:04;;;;;;;46.57;22.13;;;4.40;99.90;;;;;;4972884;28;20217;-57
2022/12/01 10:20:36;;;;;;;51.43;24.33;;;4.40;99.90;;;;;;4975927;28;20209;-52
2022/12/01 10:23:43;;;;;;;40.97;21.23;;;4.40;99.90;;;;;;4962441;28;20228;-54
2022/12/01 10:26:15;;;;;;;48.87;23.30;;;4.40;99.90;;;;;;4976282;28;20185;-52
2022/12/01 10:28:56;;;;;;;47.97;22.13;;;4.30;99.90;;;;;;4967799;28;20225;-57
2022/12/01 10:31:30;;;;;;;47.63;21.57;;;4.30;99.90;;;;;;4985000;28;20214;-52
2022/12/01 10:34:02;;;;;;;53.07;22.07;;;4.20;99.90;;;;;;4971316;28;20645;-57
2022/12/01 10:36:32;;;;;;;46.03;20.80;;;4.20;99.90;;;;;;4977442;28;20209;-52
2022/12/01 10:39:01;;;;;;;47.00;21.60;;;4.20;99.90;;;;;;4963175;28;20225;-55
2022/12/01 10:41:32;;;;;;;51.40;21.40;;;4.10;99.90;;;;;;4974684;28;20201;-52
2022/12/01 10:44:00;;;;;;;51.93;23.63;;;4.10;99.90;;;;;;4960933;28;20221;-58
2022/12/01 10:46:34;;;;;;;47.97;21.17;;;4.00;99.90;;;;;;4969438;28;20217;-50
2022/12/01 10:49:10;;;;;;;52.00;22.37;;;4.10;99.90;;;;;;4977039;28;20312;-54
2022/12/01 10:51:50;;;;;;;50.03;22.47;;;4.00;99.90;;;;;;4985102;28;20259;-51
2022/12/01 10:54:17;;;;;;;52.07;21.93;;;4.00;99.90;;;;;;4970584;28;20201;-52
2022/12/01 10:56:47;;;;;;;46.33;21.00;;;4.00;99.90;;;;;;4980859;28;20202;-57
2022/12/01 10:59:24;;;;;;;50.73;21.03;;;4.00;99.90;;;;;;4960127;28;20233;-52
2022/12/01 11:01:53;;;;;;;57.77;21.10;;;4.00;99.90;;;;;;4979718;28;20201;-53
2022/12/01 11:04:31;;;;;;;55.90;21.67;;;4.00;99.90;;;;;;4974266;28;20950;-52
2022/12/01 11:06:58;;;;;;;48.33;20.13;;;4.00;99.90;;;;;;4975122;28;20207;-55
2022/12/01 11:09:28;;;;;;;46.53;19.33;;;3.90;99.90;;;;;;4965819;28;20233;-51
2022/12/01 11:11:56;;;;;;;53.23;20.67;;;3.90;99.90;;;;;;4969506;28;20210;-55
2022/12/01 11:14:27;;;;;;;47.70;20.03;;;3.80;99.90;;;;;;4956980;28;21956;-55
2022/12/01 11:16:54;;;;;;;53.60;20.50;;;3.80;99.90;;;;;;4979050;28;20211;-52
2022/12/01 11:19:32;;;;;;;46.47;20.50;;;3.80;99.90;;;;;;4973092;28;20635;-56
2022/12/01 11:22:02;;;;;;;48.30;19.30;;;3.80;99.90;;;;;;4980429;28;20198;-55
2022/12/01 11:24:38;;;;;;;49.83;20.00;;;3.90;99.90;;;;;;4968508;28;20325;-56
2022/12/01 11:27:15;;;;;;;49.10;19.83;;;3.80;99.90;;;;;;4971267;28;20524;-55
2022/12/01 11:29:45;;;;;;;44.27;19.70;;;3.80;99.90;;;;;;4972204;28;20250;-55
2022/12/01 11:32:19;;;;;;;39.63;18.17;;;3.80;99.90;;;;;;4967015;28;20209;-55
2022/12/01 11:34:53;;;;;;;46.23;18.30;;;3.80;99.90;;;;;;4972124;28;20202;-53
2022/12/01 11:37:22;;;;;;;45.10;16.57;;;3.70;99.90;;;;;;4972444;28;20300;-52
2022/12/01 11:39:51;;;;;;;34.87;16.13;;;3.80;99.90;;;;;;4980308;28;20229;-53
2022/12/01 11:42:23;;;;;;;40.43;16.63;;;3.80;99.90;;;;;;4962471;28;20194;-52
2022/12/01 11:44:52;;;;;;;36.67;18.03;;;3.80;99.90;;;;;;4974202;28;20307;-54
2022/12/01 11:47:22;;;;;;;36.13;17.00;;;3.80;99.90;;;;;;4955810;28;20217;-53
2022/12/01 11:49:55;;;;;;;35.63;15.43;;;3.80;99.90;;;;;;4980711;28;20648;-52
2022/12/01 11:52:28;;;;;;;35.67;16.00;;;3.90;99.90;;;;;;4985811;28;20207;-53
2022/12/01 11:54:58;;;;;;;33.73;15.73;;;3.80;99.90;;;;;;4976066;28;20232;-55
2022/12/01 11:57:29;;;;;;;32.17;15.13;;;3.80;99.90;;;;;;4977916;28;20213;-53
2022/12/01 11:59:56;;;;;;;31.60;13.80;;;3.90;99.90;;;;;;4985860;28;20218;-54
2022/12/01 12:02:34;;;;;;;33.23;15.40;;;3.80;99.90;;;;;;4965320;28;20205;-51
2022/12/01 12:05:37;;;;;;;24.10;13.07;;;3.80;99.90;;;;;;4964251;28;20244;-55
2022/12/01 12:08:12;;;;;;;28.30;14.03;;;3.80;99.90;;;;;;4983600;28;20248;-54
2022/12/01 12:10:50;;;;;;;28.07;13.27;;;3.80;99.90;;;;;;4974996;28;20672;-56
2022/12/01 12:13:50;;;;;;;23.87;12.70;;;3.80;99.90;;;;;;4976657;28;20224;-53
2022/12/01 12:16:23;;;;;;;26.40;12.27;;;3.90;99.90;;;;;;4987119;28;20580;-57
2022/12/01 12:19:10;;;;;;;25.20;13.73;;;3.80;99.90;;;;;;4970796;28;20224;-53
2022/12/01 12:21:48;;;;;;;31.40;14.27;;;3.80;99.90;;;;;;4979460;28;20233;-57
2022/12/01 12:24:39;;;;;;;26.50;13.83;;;3.80;99.90;;;;;;4985209;28;20229;-54
2022/12/01 12:27:12;;;;;;;31.13;14.93;;;3.80;99.90;;;;;;4969427;28;20217;-54
2022/12/01 12:29:53;;;;;;;29.83;14.13;;;3.80;99.90;;;;;;4974840;28;20225;-59
2022/12/01 12:32:35;;;;;;;30.07;14.60;;;3.80;99.90;;;;;;4988171;28;20204;-57
2022/12/01 12:35:09;;;;;;;34.73;14.47;;;3.80;99.90;;;;;;4974228;28;20217;-51
2022/12/01 12:37:46;;;;;;;31.73;14.67;;;3.70;99.90;;;;;;4981065;28;20228;-58
2022/12/01 12:40:40;;;;;;;37.33;14.53;;;3.70;99.90;;;;;;4979809;28;20275;-56
2022/12/01 12:43:20;;;;;;;32.77;14.77;;;3.70;99.90;;;;;;4975869;28;20221;-55
2022/12/01 12:45:57;;;;;;;36.33;14.73;;;3.70;99.90;;;;;;4980019;28;20185;-50
2022/12/01 12:48:43;;;;;;;33.93;14.47;;;3.70;99.90;;;;;;4962540;28;20233;-55
2022/12/01 12:51:15;;;;;;;33.80;15.27;;;3.70;99.90;;;;;;4979156;28;20492;-55
2022/12/01 12:53:49;;;;;;;41.87;16.03;;;3.60;99.90;;;;;;4980167;28;20201;-54